Propane Maru No.18 — JL6540 — position and weather

sailwx.info

Track history (hours):
 
Tides and Currents Weather Stations Pressure Air Temp Water Temp Dewpoint Dewpoint Depression Visibility Wind Speed Wind Dir Waves Ship Positions

Propane Maru No.18

Last reported at 2018-Jun-23 10:00 UTC. Time now 2018-Jun-23 10:23 UTC.
Position N 35°19' E 139°43'.

Length 63 m; draft 4.5 m.

Type: Tanker. MMSI: 431501275.

Date/timePositionNaut miles runAvg speedWind from/ knotsBaromVisibWave heightAir tempDewpointWater temp
2018-Jun-23 10:00N 35°19' E 139°43'611.3
2018-Jun-23 09:30N 35°25' E 139°43'612.3
2018-Jun-23 09:00N 35°29' E 139°50'811.7
2018-Jun-23 08:20N 35°31' E 139°59'3 0.4
2018-Jun-23 00:02N 35°32' E 140°03'2 4.1
2018-Jun-22 23:37N 35°32' E 140°01'411.5
2018-Jun-22 23:18N 35°30' E 139°57'2 5.5
2018-Jun-22 23:00N 35°29' E 139°55'0 0.0
2018-Jun-22 22:26N 35°29' E 139°55'0 0.0
2018-Jun-22 21:32N 35°29' E 139°55'0 0.1
2018-Jun-22 21:27N 35°29' E 139°55'0 0.0
2018-Jun-22 20:59N 35°29' E 139°55'0 0.1
2018-Jun-22 20:27N 35°29' E 139°55'0 0.1
2018-Jun-22 20:00N 35°29' E 139°55'0 0.1
2018-Jun-22 19:30N 35°29' E 139°55'0 0.1
2018-Jun-22 18:57N 35°29' E 139°55'0 0.0
2018-Jun-22 16:03N 35°29' E 139°55'0 0.0
2018-Jun-22 16:00N 35°29' E 139°55'0 0.0
2018-Jun-22 15:30N 35°29' E 139°55'0 0.0
2018-Jun-22 15:00N 35°29' E 139°55'0 0.0
2018-Jun-22 14:28N 35°29' E 139°55'0 0.0
2018-Jun-22 14:00N 35°29' E 139°55'0 0.1
2018-Jun-22 13:30N 35°29' E 139°55'0 0.0
2018-Jun-22 13:00N 35°29' E 139°55'0 0.0
2018-Jun-22 12:30N 35°29' E 139°55'0 0.0
2018-Jun-22 11:59N 35°29' E 139°55'0 0.0
2018-Jun-22 11:30N 35°29' E 139°55'2 3.8
2018-Jun-22 11:00N 35°30' E 139°57'3 0.3
2018-Jun-22 01:58N 35°30' E 140°01'4 8.0
2018-Jun-22 01:29N 35°29' E 139°56'611.7
2018-Jun-22 01:00N 35°27' E 139°50'611.9
2018-Jun-22 00:30N 35°22' E 139°46'511.0
2018-Jun-22 00:00N 35°17' E 139°46'611.6
2018-Jun-21 23:30N 35°11' E 139°47'247 7.2
2018-Jun-20 12:59N 33°49' E 135°03'511.3
2018-Jun-20 12:30N 33°54' E 135°00'511.0
2018-Jun-20 12:00N 33°58' E 134°56'711.0
2018-Jun-20 11:20N 34°02' E 134°49'1212.7
2018-Jun-20 10:23N 34°12' E 134°40'713.2
2018-Jun-20 09:53N 34°18' E 134°37'512.6
2018-Jun-20 09:30N 34°23' E 134°37'612.6
2018-Jun-20 09:00N 34°29' E 134°38'612.6
2018-Jun-20 08:30N 34°36' E 134°38'10 1.9
2018-Jun-20 03:18N 34°45' E 134°35'2 3.4
2018-Jun-20 02:44N 34°43' E 134°36'0 0.2
2018-Jun-20 02:28N 34°43' E 134°36'1 2.0
2018-Jun-20 02:01N 34°42' E 134°36'612.0
2018-Jun-20 01:30N 34°37' E 134°38'611.9
2018-Jun-20 01:00N 34°31' E 134°38'611.9
2018-Jun-20 00:31N 34°25' E 134°38'612.0
2018-Jun-20 00:01N 34°19' E 134°38'611.2
2018-Jun-19 23:30N 34°13' E 134°40'611.3
2018-Jun-19 22:58N 34°09' E 134°45'511.3
2018-Jun-19 22:31N 34°05' E 134°49'611.6
2018-Jun-19 21:59N 34°01' E 134°54'612.2
2018-Jun-19 21:31N 33°56' E 134°58'612.2
2018-Jun-19 21:01N 33°51' E 135°02'24410.3
2018-Jun-18 21:22N 35°09' E 139°43'512.7
2018-Jun-18 21:00N 35°13' E 139°46'611.9
2018-Jun-18 20:30N 35°18' E 139°44'611.5
2018-Jun-18 20:00N 35°24' E 139°42'612.2
2018-Jun-18 19:30N 35°28' E 139°48'610.4
2018-Jun-18 18:56N 35°29' E 139°55'0 0.0
2018-Jun-18 08:53N 35°29' E 139°55'0 0.0
2018-Jun-18 08:09N 35°29' E 139°55'0 0.0
2018-Jun-18 08:00N 35°29' E 139°55'0 0.0
2018-Jun-18 07:30N 35°29' E 139°55'0 0.0
2018-Jun-18 07:00N 35°29' E 139°55'0 0.0
2018-Jun-18 06:28N 35°29' E 139°55'0 0.0
2018-Jun-18 06:00N 35°29' E 139°55'0 0.0
2018-Jun-18 05:30N 35°29' E 139°55'0 0.0
2018-Jun-18 05:00N 35°29' E 139°55'0 0.1
2018-Jun-18 04:30N 35°29' E 139°55'0 0.0
2018-Jun-17 11:04N 35°29' E 139°55'0 0.0
2018-Jun-17 11:00N 35°29' E 139°55'0 0.0
2018-Jun-17 10:28N 35°29' E 139°55'0 0.0
2018-Jun-17 10:00N 35°29' E 139°55'0 0.1
2018-Jun-17 09:29N 35°29' E 139°55'0 0.1
2018-Jun-17 09:00N 35°29' E 139°55'0 0.1
2018-Jun-17 08:29N 35°29' E 139°55'0 0.0
2018-Jun-17 07:59N 35°29' E 139°55'0 0.1
2018-Jun-17 07:28N 35°29' E 139°55'0 0.0
2018-Jun-17 06:59N 35°29' E 139°55'0 0.0
2018-Jun-17 06:29N 35°29' E 139°55'0 0.0
2018-Jun-16 09:19N 35°29' E 139°55'611.5
2018-Jun-16 08:46N 35°25' E 139°48'311.5
2018-Jun-16 08:30N 35°23' E 139°46'611.6
2018-Jun-16 07:59N 35°17' E 139°45'612.1
2018-Jun-16 07:27N 35°11' E 139°46'24810.8
2018-Jun-15 08:29N 33°52' E 135°02'612.3
2018-Jun-15 07:57N 33°57' E 134°57'912.5
2018-Jun-15 07:13N 34°03' E 134°49'412.8
2018-Jun-15 06:54N 34°06' E 134°46'613.7
2018-Jun-15 06:25N 34°11' E 134°41'913.5
2018-Jun-15 05:45N 34°17' E 134°33'312.6
2018-Jun-15 05:30N 34°19' E 134°29'713.2
2018-Jun-15 05:01N 34°21' E 134°22'3 0.2
2018-Jun-14 09:09N 34°23' E 134°20'212.5
2018-Jun-14 09:00N 34°23' E 134°22'612.2
2018-Jun-14 08:31N 34°21' E 134°29'1012.3
2018-Jun-14 07:43N 34°15' E 134°38'313.5
2018-Jun-14 07:30N 34°13' E 134°40'612.1
2018-Jun-14 07:00N 34°08' E 134°44'612.0
2018-Jun-14 06:30N 34°04' E 134°49'612.0
2018-Jun-14 06:00N 33°59' E 134°54'611.7
2018-Jun-14 05:30N 33°55' E 134°59'611.1
2018-Jun-14 04:56N 33°50' E 135°04'  
Track history (hours):
 
Tides and Currents Weather Stations Pressure Air Temp Water Temp Dewpoint Dewpoint Depression Visibility Wind Speed Wind Dir Waves Ship Positions

Propane Maru No.18

Last reported at 2018-Jun-23 10:00 UTC. Time now 2018-Jun-23 10:23 UTC.
Position N 35°19' E 139°43'.

Length 63 m; draft 4.5 m.

Type: Tanker. MMSI: 431501275.

Date/timePositionNaut miles runAvg speedWind from/ knotsBaromVisibWave heightAir tempDewpointWater temp
2018-Jun-23 10:00N 35°19' E 139°43'611.3
2018-Jun-23 09:30N 35°25' E 139°43'612.3
2018-Jun-23 09:00N 35°29' E 139°50'811.7
2018-Jun-23 08:20N 35°31' E 139°59'3 0.4
2018-Jun-23 00:02N 35°32' E 140°03'2 4.1
2018-Jun-22 23:37N 35°32' E 140°01'411.5
2018-Jun-22 23:18N 35°30' E 139°57'2 5.5
2018-Jun-22 23:00N 35°29' E 139°55'0 0.0
2018-Jun-22 22:26N 35°29' E 139°55'0 0.0
2018-Jun-22 21:32N 35°29' E 139°55'0 0.1
2018-Jun-22 21:27N 35°29' E 139°55'0 0.0
2018-Jun-22 20:59N 35°29' E 139°55'0 0.1
2018-Jun-22 20:27N 35°29' E 139°55'0 0.1
2018-Jun-22 20:00N 35°29' E 139°55'0 0.1
2018-Jun-22 19:30N 35°29' E 139°55'0 0.1
2018-Jun-22 18:57N 35°29' E 139°55'0 0.0
2018-Jun-22 16:03N 35°29' E 139°55'0 0.0
2018-Jun-22 16:00N 35°29' E 139°55'0 0.0
2018-Jun-22 15:30N 35°29' E 139°55'0 0.0
2018-Jun-22 15:00N 35°29' E 139°55'0 0.0
2018-Jun-22 14:28N 35°29' E 139°55'0 0.0
2018-Jun-22 14:00N 35°29' E 139°55'0 0.1
2018-Jun-22 13:30N 35°29' E 139°55'0 0.0
2018-Jun-22 13:00N 35°29' E 139°55'0 0.0
2018-Jun-22 12:30N 35°29' E 139°55'0 0.0
2018-Jun-22 11:59N 35°29' E 139°55'0 0.0
2018-Jun-22 11:30N 35°29' E 139°55'2 3.8
2018-Jun-22 11:00N 35°30' E 139°57'3 0.3
2018-Jun-22 01:58N 35°30' E 140°01'4 8.0
2018-Jun-22 01:29N 35°29' E 139°56'611.7
2018-Jun-22 01:00N 35°27' E 139°50'611.9
2018-Jun-22 00:30N 35°22' E 139°46'511.0
2018-Jun-22 00:00N 35°17' E 139°46'611.6
2018-Jun-21 23:30N 35°11' E 139°47'247 7.2
2018-Jun-20 12:59N 33°49' E 135°03'511.3
2018-Jun-20 12:30N 33°54' E 135°00'511.0
2018-Jun-20 12:00N 33°58' E 134°56'711.0
2018-Jun-20 11:20N 34°02' E 134°49'1212.7
2018-Jun-20 10:23N 34°12' E 134°40'713.2
2018-Jun-20 09:53N 34°18' E 134°37'512.6
2018-Jun-20 09:30N 34°23' E 134°37'612.6
2018-Jun-20 09:00N 34°29' E 134°38'612.6
2018-Jun-20 08:30N 34°36' E 134°38'10 1.9
2018-Jun-20 03:18N 34°45' E 134°35'2 3.4
2018-Jun-20 02:44N 34°43' E 134°36'0 0.2
2018-Jun-20 02:28N 34°43' E 134°36'1 2.0
2018-Jun-20 02:01N 34°42' E 134°36'612.0
2018-Jun-20 01:30N 34°37' E 134°38'611.9
2018-Jun-20 01:00N 34°31' E 134°38'611.9
2018-Jun-20 00:31N 34°25' E 134°38'612.0
2018-Jun-20 00:01N 34°19' E 134°38'611.2
2018-Jun-19 23:30N 34°13' E 134°40'611.3
2018-Jun-19 22:58N 34°09' E 134°45'511.3
2018-Jun-19 22:31N 34°05' E 134°49'611.6
2018-Jun-19 21:59N 34°01' E 134°54'612.2
2018-Jun-19 21:31N 33°56' E 134°58'612.2
2018-Jun-19 21:01N 33°51' E 135°02'24410.3
2018-Jun-18 21:22N 35°09' E 139°43'512.7
2018-Jun-18 21:00N 35°13' E 139°46'611.9
2018-Jun-18 20:30N 35°18' E 139°44'611.5
2018-Jun-18 20:00N 35°24' E 139°42'612.2
2018-Jun-18 19:30N 35°28' E 139°48'610.4
2018-Jun-18 18:56N 35°29' E 139°55'0 0.0
2018-Jun-18 08:53N 35°29' E 139°55'0 0.0
2018-Jun-18 08:09N 35°29' E 139°55'0 0.0
2018-Jun-18 08:00N 35°29' E 139°55'0 0.0
2018-Jun-18 07:30N 35°29' E 139°55'0 0.0
2018-Jun-18 07:00N 35°29' E 139°55'0 0.0
2018-Jun-18 06:28N 35°29' E 139°55'0 0.0
2018-Jun-18 06:00N 35°29' E 139°55'0 0.0
2018-Jun-18 05:30N 35°29' E 139°55'0 0.0
2018-Jun-18 05:00N 35°29' E 139°55'0 0.1
2018-Jun-18 04:30N 35°29' E 139°55'0 0.0
2018-Jun-17 11:04N 35°29' E 139°55'0 0.0
2018-Jun-17 11:00N 35°29' E 139°55'0 0.0
2018-Jun-17 10:28N 35°29' E 139°55'0 0.0
2018-Jun-17 10:00N 35°29' E 139°55'0 0.1
2018-Jun-17 09:29N 35°29' E 139°55'0 0.1
2018-Jun-17 09:00N 35°29' E 139°55'0 0.1
2018-Jun-17 08:29N 35°29' E 139°55'0 0.0
2018-Jun-17 07:59N 35°29' E 139°55'0 0.1
2018-Jun-17 07:28N 35°29' E 139°55'0 0.0
2018-Jun-17 06:59N 35°29' E 139°55'0 0.0
2018-Jun-17 06:29N 35°29' E 139°55'0 0.0
2018-Jun-16 09:19N 35°29' E 139°55'611.5
2018-Jun-16 08:46N 35°25' E 139°48'311.5
2018-Jun-16 08:30N 35°23' E 139°46'611.6
2018-Jun-16 07:59N 35°17' E 139°45'612.1
2018-Jun-16 07:27N 35°11' E 139°46'24810.8
2018-Jun-15 08:29N 33°52' E 135°02'612.3
2018-Jun-15 07:57N 33°57' E 134°57'912.5
2018-Jun-15 07:13N 34°03' E 134°49'412.8
2018-Jun-15 06:54N 34°06' E 134°46'613.7
2018-Jun-15 06:25N 34°11' E 134°41'913.5
2018-Jun-15 05:45N 34°17' E 134°33'312.6
2018-Jun-15 05:30N 34°19' E 134°29'713.2
2018-Jun-15 05:01N 34°21' E 134°22'3 0.2
2018-Jun-14 09:09N 34°23' E 134°20'212.5
2018-Jun-14 09:00N 34°23' E 134°22'612.2
2018-Jun-14 08:31N 34°21' E 134°29'1012.3
2018-Jun-14 07:43N 34°15' E 134°38'313.5
2018-Jun-14 07:30N 34°13' E 134°40'612.1
2018-Jun-14 07:00N 34°08' E 134°44'612.0
2018-Jun-14 06:30N 34°04' E 134°49'612.0
2018-Jun-14 06:00N 33°59' E 134°54'611.7
2018-Jun-14 05:30N 33°55' E 134°59'611.1
2018-Jun-14 04:56N 33°50' E 135°04'  

Dump ship's entire track history